Failsworth, United Kingdom
Current Conditions -  °F | °C
As of 9:50 AM on Sunday 21 Dec 2014 (Local Time) from EGCC Reporting Station
Broken Clouds Broken Clouds  
Wind Chill: 40°   Ceiling: 3200
Heat Index: 46°   Visibility: 6mi
Dew Point: 43°   Wind: 14mph
Humidity: 87%   Direction: 190°S
Pressure: 30.15"   Gusts: NA
Location:  53.5°N, 2.17°W
Report Text: EGCC 210950Z 19012KT 9999 FEW016 SCT023 BKN032 08/06 Q1021 NOSIG
Loading
Personal Weather Stations






























Interactive Weather Map New forecast layout! Learn more

10-Day Weather Forecast

Advertisements
Track Severe Weather on mobile